createdAt,value
2019-05-12T00:00:13.244Z,1017
2019-05-12T00:01:12.412Z,1017
2019-05-12T00:02:13.368Z,1017
2019-05-12T00:03:12.462Z,1017
2019-05-12T00:04:13.655Z,1017
2019-05-12T00:05:13.609Z,1017
2019-05-12T00:06:12.734Z,1017
2019-05-12T00:07:12.741Z,1017
2019-05-12T00:08:12.858Z,1017
2019-05-12T00:09:12.969Z,1017
2019-05-12T00:10:13.079Z,1017
2019-05-12T00:11:13.187Z,1017
2019-05-12T00:12:13.333Z,1017
2019-05-12T00:13:14.436Z,1017
2019-05-12T00:14:13.541Z,1017
2019-05-12T00:15:13.626Z,1017
2019-05-12T00:16:14.740Z,1017
2019-05-12T00:17:13.897Z,1017
2019-05-12T00:18:14.013Z,1017
2019-05-12T00:19:14.131Z,1018
2019-05-12T00:20:14.233Z,1018
2019-05-12T00:21:14.360Z,1018
2019-05-12T00:22:14.509Z,1018
2019-05-12T00:23:24.635Z,1018
2019-05-12T00:24:15.667Z,1018
2019-05-12T00:25:14.808Z,1018
2019-05-12T00:26:14.901Z,1018
2019-05-12T00:27:15.058Z,1018
2019-05-12T00:28:15.153Z,1018
2019-05-12T00:29:15.283Z,1018
2019-05-12T00:30:15.376Z,1018
2019-05-12T00:31:15.466Z,1018
2019-05-12T00:32:17.805Z,1018
2019-05-12T00:33:17.816Z,1018
2019-05-12T00:34:18.193Z,1018
2019-05-12T00:35:18.136Z,1018
2019-05-12T00:36:15.956Z,1018
2019-05-12T00:37:18.018Z,1018
2019-05-12T00:38:17.630Z,1018
2019-05-12T00:39:18.794Z,1018
2019-05-12T00:40:19.001Z,1018
2019-05-12T00:41:18.126Z,1018
2019-05-12T00:42:18.248Z,1018
2019-05-12T00:43:18.731Z,1018
2019-05-12T00:44:18.339Z,1018
2019-05-12T00:45:18.087Z,1018
2019-05-12T00:46:18.298Z,1018
2019-05-12T00:47:18.721Z,1018
2019-05-12T00:48:17.923Z,1018
2019-05-12T00:49:18.610Z,1018
2019-05-12T00:50:18.402Z,1018
2019-05-12T00:51:18.132Z,1018
2019-05-12T00:52:18.625Z,1018
2019-05-12T00:53:18.824Z,1018
2019-05-12T00:54:18.150Z,1018
2019-05-12T00:55:18.473Z,1018
2019-05-12T00:56:18.228Z,1018
2019-05-12T00:57:18.352Z,1018
2019-05-12T00:58:19.348Z,1018
2019-05-12T00:59:19.122Z,1018
2019-05-12T01:00:18.732Z,1018
2019-05-12T01:01:18.869Z,1018
2019-05-12T01:02:18.987Z,1018
2019-05-12T01:03:19.138Z,1018
2019-05-12T01:04:19.169Z,1018
2019-05-12T01:05:19.175Z,1018
2019-05-12T01:06:19.253Z,1018
2019-05-12T01:07:19.247Z,1018
2019-05-12T01:08:19.421Z,1018
2019-05-12T01:09:19.384Z,1018
2019-05-12T01:10:19.493Z,1018
2019-05-12T01:11:19.608Z,1018
2019-05-12T01:12:19.739Z,1018
2019-05-12T01:13:19.867Z,1018
2019-05-12T01:14:20.012Z,1018
2019-05-12T01:15:19.994Z,1018
2019-05-12T01:16:20.104Z,1018
2019-05-12T01:17:20.244Z,1018
2019-05-12T01:18:20.360Z,1018
2019-05-12T01:19:20.565Z,1018
2019-05-12T01:20:20.502Z,1018
2019-05-12T01:21:20.609Z,1018
2019-05-12T01:22:20.734Z,1018
2019-05-12T01:23:23.305Z,1018
2019-05-12T01:24:21.062Z,1018
2019-05-12T01:25:21.101Z,1018
2019-05-12T01:26:21.208Z,1018
2019-05-12T01:27:21.303Z,1018
2019-05-12T01:28:21.404Z,1018
2019-05-12T01:29:21.576Z,1018
2019-05-12T01:30:21.520Z,1018
2019-05-12T01:31:21.635Z,1018
2019-05-12T01:32:21.775Z,1018
2019-05-12T01:33:21.807Z,1018
2019-05-12T01:34:21.852Z,1018
2019-05-12T01:35:21.968Z,1018
2019-05-12T01:36:21.975Z,1018
2019-05-12T01:37:22.109Z,1018
2019-05-12T01:38:22.122Z,1018
2019-05-12T01:39:22.300Z,1019
2019-05-12T01:40:22.331Z,1019
2019-05-12T01:41:22.378Z,1019
2019-05-12T01:42:22.496Z,1019
2019-05-12T01:43:22.570Z,1019
2019-05-12T01:44:22.619Z,1019
2019-05-12T01:45:22.691Z,1019
2019-05-12T01:46:22.731Z,1019
2019-05-12T01:47:22.855Z,1019
2019-05-12T01:48:22.958Z,1019
2019-05-12T01:49:23.083Z,1019
2019-05-12T01:50:23.243Z,1019
2019-05-12T01:51:23.227Z,1019
2019-05-12T01:52:23.365Z,1019
2019-05-12T01:53:23.486Z,1019
2019-05-12T01:54:23.624Z,1019
2019-05-12T01:55:23.757Z,1019
2019-05-12T01:56:23.891Z,1019
2019-05-12T01:57:23.878Z,1019
2019-05-12T01:58:23.995Z,1019
2019-05-12T01:59:24.033Z,1019
2019-05-12T02:00:24.066Z,1019
2019-05-12T02:01:24.103Z,1019
2019-05-12T02:02:24.100Z,1019
2019-05-12T02:03:24.214Z,1019
2019-05-12T02:04:24.329Z,1019
2019-05-12T02:05:24.428Z,1019
2019-05-12T02:06:24.629Z,1019
2019-05-12T02:07:24.596Z,1019
2019-05-12T02:08:24.604Z,1019
2019-05-12T02:09:24.761Z,1019
2019-05-12T02:10:24.892Z,1019
2019-05-12T02:11:25.055Z,1019
2019-05-12T02:12:25.153Z,1019
2019-05-12T02:13:27.225Z,1019
2019-05-12T02:14:27.526Z,1019
2019-05-12T02:15:27.638Z,1019
2019-05-12T02:16:28.021Z,1019
2019-05-12T02:17:25.628Z,1019
2019-05-12T02:18:28.075Z,1019
2019-05-12T02:19:28.059Z,1019
2019-05-12T02:20:26.566Z,1019
2019-05-12T02:21:27.926Z,1019
2019-05-12T02:22:27.856Z,1019
2019-05-12T02:23:28.138Z,1019
2019-05-12T02:24:27.848Z,1019
2019-05-12T02:25:28.604Z,1019
2019-05-12T02:26:28.893Z,1019
2019-05-12T02:27:28.369Z,1019
2019-05-12T02:28:28.612Z,1019
2019-05-12T02:29:28.491Z,1019
2019-05-12T02:30:30.186Z,1019
2019-05-12T02:31:29.365Z,1019
2019-05-12T02:32:32.644Z,1019
2019-05-12T02:33:27.367Z,1019
2019-05-12T02:34:27.492Z,1019
2019-05-12T02:35:27.615Z,1019
2019-05-12T02:36:27.742Z,1019
2019-05-12T02:37:27.881Z,1019
2019-05-12T02:38:27.979Z,1019
2019-05-12T02:39:28.087Z,1019
2019-05-12T02:40:28.178Z,1019
2019-05-12T02:41:28.309Z,1019
2019-05-12T02:42:28.452Z,1019
2019-05-12T02:43:28.564Z,1019
2019-05-12T02:44:28.676Z,1019
2019-05-12T02:45:28.770Z,1019
2019-05-12T02:46:28.881Z,1020
2019-05-12T02:47:29.011Z,1020
2019-05-12T02:48:29.142Z,1020
2019-05-12T02:49:29.297Z,1020
2019-05-12T02:50:29.403Z,1020
2019-05-12T02:51:29.517Z,1020
2019-05-12T02:52:29.633Z,1020
2019-05-12T02:53:29.754Z,1020
2019-05-12T02:54:46.911Z,1020
2019-05-12T02:55:29.916Z,1020
2019-05-12T02:56:29.995Z,1020
2019-05-12T02:57:30.126Z,1020
2019-05-12T02:58:30.215Z,1020
2019-05-12T02:59:30.326Z,1020
2019-05-12T03:00:30.435Z,1020
2019-05-12T03:01:30.589Z,1020
2019-05-12T03:02:30.750Z,1020
2019-05-12T03:03:30.877Z,1020
2019-05-12T03:04:30.977Z,1020
2019-05-12T03:05:31.007Z,1020
2019-05-12T03:06:31.134Z,1020
2019-05-12T03:07:34.259Z,1020
2019-05-12T03:08:34.396Z,1020
2019-05-12T03:09:34.710Z,1020
2019-05-12T03:10:31.414Z,1020
2019-05-12T03:11:31.518Z,1020
2019-05-12T03:12:34.395Z,1020
2019-05-12T03:13:34.546Z,1020
2019-05-12T03:14:36.733Z,1020
2019-05-12T03:15:31.807Z,1020
2019-05-12T03:16:34.871Z,1020
2019-05-12T03:17:35.093Z,1020
2019-05-12T03:18:34.698Z,1020
2019-05-12T03:19:34.521Z,1020
2019-05-12T03:20:34.997Z,1020
2019-05-12T03:21:35.142Z,1020
2019-05-12T03:22:35.128Z,1020
2019-05-12T03:23:35.170Z,1020
2019-05-12T03:24:34.251Z,1020
2019-05-12T03:25:35.532Z,1020
2019-05-12T03:26:34.616Z,1020
2019-05-12T03:27:35.041Z,1020
2019-05-12T03:28:35.494Z,1020
2019-05-12T03:29:34.298Z,1020
2019-05-12T03:30:38.033Z,1020
2019-05-12T03:31:38.647Z,1020
2019-05-12T03:32:37.655Z,1020
2019-05-12T03:33:40.781Z,1020
2019-05-12T03:34:38.098Z,1020
2019-05-12T03:35:40.772Z,1020
2019-05-12T03:36:40.931Z,1020
2019-05-12T03:37:35.292Z,1020
2019-05-12T03:38:35.929Z,1020
2019-05-12T03:39:34.335Z,1020
2019-05-12T03:40:37.169Z,1020
2019-05-12T03:41:34.812Z,1020
2019-05-12T03:42:35.394Z,1020
2019-05-12T03:43:35.187Z,1020
2019-05-12T03:44:35.177Z,1020
2019-05-12T03:45:35.766Z,1020
2019-05-12T03:46:35.190Z,1020
2019-05-12T03:47:35.449Z,1020
2019-05-12T03:48:34.884Z,1020
2019-05-12T03:49:34.739Z,1020
2019-05-12T03:50:35.192Z,1020
2019-05-12T03:51:35.048Z,1020
2019-05-12T03:52:35.069Z,1020
2019-05-12T03:53:35.328Z,1020
2019-05-12T03:54:34.988Z,1020
2019-05-12T03:55:37.654Z,1020
2019-05-12T03:56:35.075Z,1020
2019-05-12T03:57:34.889Z,1020
2019-05-12T03:58:35.007Z,1020
2019-05-12T03:59:35.061Z,1020
2019-05-12T04:00:36.026Z,1020
2019-05-12T04:01:36.210Z,1020
2019-05-12T04:02:35.153Z,1021
2019-05-12T04:03:35.213Z,1020
2019-05-12T04:04:35.303Z,1020
2019-05-12T04:05:35.711Z,1021
2019-05-12T04:06:35.474Z,1021
2019-05-12T04:07:35.572Z,1021
2019-05-12T04:08:35.670Z,1021
2019-05-12T04:09:35.793Z,1021
2019-05-12T04:10:36.630Z,1021
2019-05-12T04:11:36.129Z,1021
2019-05-12T04:12:36.033Z,1021
2019-05-12T04:13:36.263Z,1021
2019-05-12T04:14:36.172Z,1021
2019-05-12T04:15:36.273Z,1021
2019-05-12T04:16:36.765Z,1021
2019-05-12T04:17:36.477Z,1021
2019-05-12T04:18:36.572Z,1021
2019-05-12T04:19:36.689Z,1021
2019-05-12T04:20:36.830Z,1021
2019-05-12T04:21:36.919Z,1021
2019-05-12T04:22:38.013Z,1021
2019-05-12T04:23:37.060Z,1021
2019-05-12T04:24:38.173Z,1021
2019-05-12T04:25:50.788Z,1021
2019-05-12T04:26:37.274Z,1021
2019-05-12T04:27:37.362Z,1021
2019-05-12T04:28:37.440Z,1021
2019-05-12T04:29:37.535Z,1021
2019-05-12T04:30:37.626Z,1021
2019-05-12T04:31:38.739Z,1021
2019-05-12T04:32:37.853Z,1021
2019-05-12T04:33:37.923Z,1021
2019-05-12T04:34:38.010Z,1021
2019-05-12T04:35:38.156Z,1021
2019-05-12T04:36:38.120Z,1021
2019-05-12T04:37:38.136Z,1021
2019-05-12T04:38:38.161Z,1021
2019-05-12T04:39:38.250Z,1021
2019-05-12T04:40:38.407Z,1021
2019-05-12T04:41:38.405Z,1021
2019-05-12T04:42:38.563Z,1021
2019-05-12T04:43:38.635Z,1021
2019-05-12T04:44:38.726Z,1021
2019-05-12T04:45:38.927Z,1021
2019-05-12T04:46:38.901Z,1021
2019-05-12T04:47:38.996Z,1021
2019-05-12T04:48:39.124Z,1021
2019-05-12T04:49:39.187Z,1021
2019-05-12T04:50:39.271Z,1021
2019-05-12T04:51:39.351Z,1021
2019-05-12T04:52:39.463Z,1021
2019-05-12T04:53:39.590Z,1021
2019-05-12T04:54:39.638Z,1021
2019-05-12T04:55:39.804Z,1021
2019-05-12T04:56:39.764Z,1021
2019-05-12T04:57:39.838Z,1021
2019-05-12T04:58:39.956Z,1021
2019-05-12T04:59:40.021Z,1021
2019-05-12T05:00:40.114Z,1021
2019-05-12T05:01:40.308Z,1021
2019-05-12T05:02:40.380Z,1021
2019-05-12T05:03:40.517Z,1021
2019-05-12T05:04:40.593Z,1021
2019-05-12T05:05:40.671Z,1021
2019-05-12T05:06:40.821Z,1021
2019-05-12T05:07:40.900Z,1021
2019-05-12T05:08:43.900Z,1022
2019-05-12T05:09:43.985Z,1021
2019-05-12T05:10:41.152Z,1022
2019-05-12T05:11:41.405Z,1022
2019-05-12T05:12:41.354Z,1022
2019-05-12T05:13:44.050Z,1022
2019-05-12T05:14:44.271Z,1022
2019-05-12T05:15:43.966Z,1022
2019-05-12T05:16:41.736Z,1022
2019-05-12T05:17:44.053Z,1022
2019-05-12T05:18:43.767Z,1022
2019-05-12T05:19:43.903Z,1022
2019-05-12T05:20:43.791Z,1022
2019-05-12T05:21:43.729Z,1022
2019-05-12T05:22:43.969Z,1022
2019-05-12T05:23:44.225Z,1022
2019-05-12T05:24:44.354Z,1022
2019-05-12T05:25:43.424Z,1022
2019-05-12T05:26:43.559Z,1022
2019-05-12T05:27:44.336Z,1022
2019-05-12T05:28:43.485Z,1022
2019-05-12T05:29:43.755Z,1022
2019-05-12T05:30:44.060Z,1022
2019-05-12T05:31:44.140Z,1022
2019-05-12T05:32:44.406Z,1022
2019-05-12T05:33:43.532Z,1022
2019-05-12T05:34:45.805Z,1022
2019-05-12T05:35:43.525Z,1022
2019-05-12T05:36:43.454Z,1022
2019-05-12T05:37:44.146Z,1022
2019-05-12T05:38:43.777Z,1022
2019-05-12T05:39:49.404Z,1022
2019-05-12T05:40:43.632Z,1022
2019-05-12T05:41:46.275Z,1022
2019-05-12T05:42:44.712Z,1022
2019-05-12T05:43:43.903Z,1022
2019-05-12T05:44:43.898Z,1022
2019-05-12T05:45:44.005Z,1022
2019-05-12T05:46:45.354Z,1022
2019-05-12T05:47:44.450Z,1022
2019-05-12T05:48:44.295Z,1022
2019-05-12T05:49:44.349Z,1022
2019-05-12T05:50:44.422Z,1022
2019-05-12T05:51:48.355Z,1022
2019-05-12T05:52:44.511Z,1022
2019-05-12T05:53:49.739Z,1022
2019-05-12T05:54:44.637Z,1022
2019-05-12T05:55:44.724Z,1022
2019-05-12T05:56:57.382Z,1022
2019-05-12T05:57:44.903Z,1022
2019-05-12T05:58:46.792Z,1022
2019-05-12T05:59:44.985Z,1022
2019-05-12T06:00:44.987Z,1022
2019-05-12T06:01:46.699Z,1022
2019-05-12T06:02:45.183Z,1022
2019-05-12T06:03:45.228Z,1022
2019-05-12T06:04:49.647Z,1022
2019-05-12T06:05:46.349Z,1022
2019-05-12T06:06:50.470Z,1022
2019-05-12T06:07:46.647Z,1022
2019-05-12T06:08:46.847Z,1022
2019-05-12T06:09:45.813Z,1022
2019-05-12T06:10:45.980Z,1022
2019-05-12T06:11:45.991Z,1022
2019-05-12T06:12:50.605Z,1022
2019-05-12T06:13:46.179Z,1022
2019-05-12T06:14:54.301Z,1022
2019-05-12T06:15:47.279Z,1022
2019-05-12T06:16:46.443Z,1022
2019-05-12T06:17:46.470Z,1022
2019-05-12T06:18:46.525Z,1022
2019-05-12T06:19:46.530Z,1022
2019-05-12T06:20:46.544Z,1022
2019-05-12T06:21:46.530Z,1022
2019-05-12T06:22:48.512Z,1022
2019-05-12T06:23:47.864Z,1022
2019-05-12T06:24:49.028Z,1022
2019-05-12T06:25:51.448Z,1022
2019-05-12T06:26:57.533Z,1022
2019-05-12T06:27:51.011Z,1022
2019-05-12T06:28:47.332Z,1023
2019-05-12T06:29:52.291Z,1022
2019-05-12T06:30:50.043Z,1022
2019-05-12T06:31:47.534Z,1022
2019-05-12T06:32:51.695Z,1022
2019-05-12T06:33:47.677Z,1023
2019-05-12T06:34:50.774Z,1023
2019-05-12T06:35:47.776Z,1023
2019-05-12T06:36:47.967Z,1023
2019-05-12T06:37:57.012Z,1023
2019-05-12T06:38:48.148Z,1023
2019-05-12T06:39:50.834Z,1023
2019-05-12T06:40:48.167Z,1023
2019-05-12T06:41:48.330Z,1023
2019-05-12T06:42:53.110Z,1023
2019-05-12T06:43:48.493Z,1023
2019-05-12T06:44:48.835Z,1023
2019-05-12T06:45:48.493Z,1023
2019-05-12T06:46:53.308Z,1023
2019-05-12T06:47:49.710Z,1023
2019-05-12T06:48:48.759Z,1023
2019-05-12T06:49:53.781Z,1023
2019-05-12T06:50:49.132Z,1023
2019-05-12T06:51:53.336Z,1023
2019-05-12T06:52:49.242Z,1023
2019-05-12T06:53:49.335Z,1023
2019-05-12T06:54:51.114Z,1023
2019-05-12T06:55:49.552Z,1023
2019-05-12T06:56:49.949Z,1023
2019-05-12T06:57:50.189Z,1023
2019-05-12T06:58:49.843Z,1023
2019-05-12T06:59:51.106Z,1023
2019-05-12T07:00:49.895Z,1023
2019-05-12T07:01:54.528Z,1023
2019-05-12T07:02:52.523Z,1023
2019-05-12T07:03:50.032Z,1023
2019-05-12T07:04:56.439Z,1023
2019-05-12T07:05:50.046Z,1023
2019-05-12T07:06:55.883Z,1023
2019-05-12T07:07:50.216Z,1023
2019-05-12T07:09:02.260Z,1023
2019-05-12T07:09:53.703Z,1023
2019-05-12T07:10:57.289Z,1023
2019-05-12T07:11:58.637Z,1023
2019-05-12T07:12:58.711Z,1023
2019-05-12T07:14:01.178Z,1023
2019-05-12T07:14:55.252Z,1023
2019-05-12T07:15:51.065Z,1023
2019-05-12T07:16:53.210Z,1023
2019-05-12T07:17:53.087Z,1023
2019-05-12T07:18:54.026Z,1023
2019-05-12T07:19:54.558Z,1023
2019-05-12T07:20:53.586Z,1023
2019-05-12T07:21:58.115Z,1023
2019-05-12T07:22:54.271Z,1023
2019-05-12T07:23:53.440Z,1023
2019-05-12T07:24:54.742Z,1023
2019-05-12T07:25:54.726Z,1023
2019-05-12T07:26:54.273Z,1023
2019-05-12T07:27:54.735Z,1023
2019-05-12T07:28:54.048Z,1023
2019-05-12T07:29:54.164Z,1023
2019-05-12T07:30:54.318Z,1023
2019-05-12T07:31:53.651Z,1023
2019-05-12T07:32:59.324Z,1023
2019-05-12T07:33:54.173Z,1023
2019-05-12T07:34:54.335Z,1023
2019-05-12T07:36:00.907Z,1023
2019-05-12T07:36:53.833Z,1023
2019-05-12T07:37:53.880Z,1023
2019-05-12T07:38:55.727Z,1023
2019-05-12T07:39:53.906Z,1023
2019-05-12T07:40:53.625Z,1023
2019-05-12T07:41:54.919Z,1023
2019-05-12T07:42:54.335Z,1023
2019-05-12T07:43:56.608Z,1023
2019-05-12T07:44:54.408Z,1023
2019-05-12T07:46:01.815Z,1023
2019-05-12T07:46:54.049Z,1023
2019-05-12T07:47:54.094Z,1023
2019-05-12T07:48:54.199Z,1023
2019-05-12T07:49:53.816Z,1023
2019-05-12T07:50:56.243Z,1023
2019-05-12T07:51:54.390Z,1023
2019-05-12T07:52:54.254Z,1023
2019-05-12T07:53:55.088Z,1023
2019-05-12T07:54:55.879Z,1023
2019-05-12T07:55:53.656Z,1023
2019-05-12T07:56:54.679Z,1023
2019-05-12T07:57:58.470Z,1023
2019-05-12T07:58:56.569Z,1023
2019-05-12T07:59:54.172Z,1023
2019-05-12T08:01:02.269Z,1023
2019-05-12T08:01:54.934Z,1023
2019-05-12T08:02:54.121Z,1023
2019-05-12T08:03:57.057Z,1023
2019-05-12T08:04:54.278Z,1023
2019-05-12T08:05:57.257Z,1023
2019-05-12T08:06:54.328Z,1023
2019-05-12T08:07:54.318Z,1023
2019-05-12T08:08:58.804Z,1023
2019-05-12T08:09:54.435Z,1023
2019-05-12T08:10:55.924Z,1023
2019-05-12T08:11:54.608Z,1023
2019-05-12T08:12:58.888Z,1023
2019-05-12T08:13:54.759Z,1023
2019-05-12T08:14:59.276Z,1023
2019-05-12T08:15:56.354Z,1023
2019-05-12T08:16:55.036Z,1023
2019-05-12T08:17:59.241Z,1023
2019-05-12T08:18:55.185Z,1023
2019-05-12T08:19:55.199Z,1023
2019-05-12T08:20:55.227Z,1023
2019-05-12T08:21:55.275Z,1023
2019-05-12T08:22:59.494Z,1023
2019-05-12T08:23:56.429Z,1023
2019-05-12T08:24:55.471Z,1023
2019-05-12T09:00:57.152Z,1023
2019-05-12T09:02:00.340Z,1023
2019-05-12T09:02:57.179Z,1023
2019-05-12T09:04:00.213Z,1023
2019-05-12T09:04:57.205Z,1023
2019-05-12T09:05:57.214Z,1023
2019-05-12T09:06:59.761Z,1023
2019-05-12T09:07:57.354Z,1023
2019-05-12T09:08:57.497Z,1023
2019-05-12T09:09:57.510Z,1023
2019-05-12T09:10:57.538Z,1023
2019-05-12T09:11:57.602Z,1023
2019-05-12T09:12:57.590Z,1024
2019-05-12T09:14:00.297Z,1024
2019-05-12T09:14:57.570Z,1024
2019-05-12T09:15:57.610Z,1023
2019-05-12T09:17:02.143Z,1023
2019-05-12T09:17:57.733Z,1023
2019-05-12T09:18:57.801Z,1023
2019-05-12T09:20:03.447Z,1023
2019-05-12T09:20:57.940Z,1023
2019-05-12T09:21:57.995Z,1024
2019-05-12T09:23:00.507Z,1024
2019-05-12T09:23:58.058Z,1023
2019-05-12T09:24:58.312Z,1024
2019-05-12T09:25:58.093Z,1023
2019-05-12T09:26:58.880Z,1023
2019-05-12T09:27:58.101Z,1024
2019-05-12T09:28:58.182Z,1023
2019-05-12T09:29:59.017Z,1024
2019-05-12T09:30:58.276Z,1023
2019-05-12T09:31:59.116Z,1023
2019-05-12T09:32:58.257Z,1023
2019-05-12T09:34:03.388Z,1023
2019-05-12T09:34:58.466Z,1023
2019-05-12T09:35:58.576Z,1023
2019-05-12T09:36:59.771Z,1024
2019-05-12T09:37:58.547Z,1023
2019-05-12T09:39:01.385Z,1023
2019-05-12T09:39:58.585Z,1023
2019-05-12T09:41:01.049Z,1023
2019-05-12T09:41:58.890Z,1023
2019-05-12T09:43:00.128Z,1024
2019-05-12T09:44:01.535Z,1024
2019-05-12T09:44:59.911Z,1024
2019-05-12T09:45:58.975Z,1024
2019-05-12T09:46:59.165Z,1024
2019-05-12T09:48:04.615Z,1024
2019-05-12T09:48:59.339Z,1024
2019-05-12T09:49:59.379Z,1024
2019-05-12T09:51:01.989Z,1024
2019-05-12T09:51:59.515Z,1024
2019-05-12T09:53:00.963Z,1024
2019-05-12T09:53:59.646Z,1024
2019-05-12T09:54:59.674Z,1024
2019-05-12T09:55:59.686Z,1024
2019-05-12T09:56:59.887Z,1024
2019-05-12T09:57:59.839Z,1024
2019-05-12T09:59:02.613Z,1024
2019-05-12T10:00:01.005Z,1024
2019-05-12T10:00:59.998Z,1024
2019-05-12T10:01:59.996Z,1024
2019-05-12T10:03:00.823Z,1024
2019-05-12T10:04:00.104Z,1024
2019-05-12T10:05:00.817Z,1024
2019-05-12T10:06:00.150Z,1024
2019-05-12T10:07:00.185Z,1024
2019-05-12T10:08:00.149Z,1024
2019-05-12T10:09:03.298Z,1024
2019-05-12T10:10:00.324Z,1024
2019-05-12T10:11:00.316Z,1024
2019-05-12T10:12:00.985Z,1024
2019-05-12T10:13:00.467Z,1024
2019-05-12T10:14:05.572Z,1024
2019-05-12T10:15:00.622Z,1024
2019-05-12T10:16:04.753Z,1024
2019-05-12T10:17:00.645Z,1024
2019-05-12T10:18:06.265Z,1024
2019-05-12T10:19:00.806Z,1024
2019-05-12T10:20:00.792Z,1024
2019-05-12T10:21:01.028Z,1024
2019-05-12T10:22:01.035Z,1024
2019-05-12T10:23:01.046Z,1024
2019-05-12T10:24:02.710Z,1024
2019-05-12T10:25:03.874Z,1024
2019-05-12T10:26:07.395Z,1024
2019-05-12T10:27:03.720Z,1024
2019-05-12T10:28:02.837Z,1024
2019-05-12T10:29:14.029Z,1024
2019-05-12T10:30:03.097Z,1024
2019-05-12T10:31:04.001Z,1024
2019-05-12T10:32:03.781Z,1024
2019-05-12T10:33:03.667Z,1024
2019-05-12T10:34:03.355Z,1024
2019-05-12T10:35:02.028Z,1024
2019-05-12T10:36:05.058Z,1024
2019-05-12T10:37:03.622Z,1024
2019-05-12T10:38:06.100Z,1024
2019-05-12T10:39:04.219Z,1024
2019-05-12T10:40:03.671Z,1024
2019-05-12T10:41:04.225Z,1024
2019-05-12T10:42:02.349Z,1024
2019-05-12T10:43:04.404Z,1024
2019-05-12T10:44:04.040Z,1024
2019-05-12T10:45:04.155Z,1024
2019-05-12T10:46:04.153Z,1024
2019-05-12T10:47:04.380Z,1024
2019-05-12T10:48:03.560Z,1024
2019-05-12T10:49:03.907Z,1024
2019-05-12T10:50:02.422Z,1024
2019-05-12T10:51:02.482Z,1024
2019-05-12T10:52:03.841Z,1024
2019-05-12T10:53:04.459Z,1024
2019-05-12T10:54:09.790Z,1024
2019-05-12T10:55:04.415Z,1024
2019-05-12T10:56:02.809Z,1024
2019-05-12T10:57:04.911Z,1024
2019-05-12T10:58:06.388Z,1024
2019-05-12T10:59:04.243Z,1024
2019-05-12T11:00:04.101Z,1024
2019-05-12T11:01:04.967Z,1024
2019-05-12T11:02:03.475Z,1024
2019-05-12T11:03:09.664Z,1024
2019-05-12T11:04:03.927Z,1024
2019-05-12T11:05:03.145Z,1024
2019-05-12T11:06:07.375Z,1024
2019-05-12T11:07:04.624Z,1024
2019-05-12T11:08:06.272Z,1024
2019-05-12T11:09:03.796Z,1024
2019-05-12T11:10:15.095Z,1024
2019-05-12T11:11:04.148Z,1024
2019-05-12T11:12:04.429Z,1024
2019-05-12T11:13:08.147Z,1024
2019-05-12T11:14:03.903Z,1024
2019-05-12T11:15:06.578Z,1024
2019-05-12T11:16:04.569Z,1024
2019-05-12T11:17:07.499Z,1024
2019-05-12T11:18:03.608Z,1024
2019-05-12T11:19:06.224Z,1024
2019-05-12T11:20:04.081Z,1024
2019-05-12T11:21:03.765Z,1024
2019-05-12T11:22:03.846Z,1024
2019-05-12T11:23:03.834Z,1024
2019-05-12T11:24:03.924Z,1024
2019-05-12T11:25:04.381Z,1024
2019-05-12T11:26:04.021Z,1024
2019-05-12T11:27:04.151Z,1024
2019-05-12T11:28:03.982Z,1024
2019-05-12T11:29:03.892Z,1024
2019-05-12T11:30:04.349Z,1024
2019-05-12T11:31:03.880Z,1024
2019-05-12T11:32:03.963Z,1024
2019-05-12T11:33:04.474Z,1024
2019-05-12T11:34:04.766Z,1024
2019-05-12T11:35:04.211Z,1024
2019-05-12T11:36:04.431Z,1024
2019-05-12T11:37:04.091Z,1024
2019-05-12T11:38:04.752Z,1024
2019-05-12T11:39:04.186Z,1024
2019-05-12T11:40:04.419Z,1024
2019-05-12T11:41:04.358Z,1024
2019-05-12T11:42:04.413Z,1024
2019-05-12T11:43:04.574Z,1024
2019-05-12T11:44:04.304Z,1024
2019-05-12T11:45:04.328Z,1024
2019-05-12T11:46:04.378Z,1024
2019-05-12T11:47:04.405Z,1024
2019-05-12T11:48:09.882Z,1024
2019-05-12T11:49:04.512Z,1024
2019-05-12T11:50:09.486Z,1024
2019-05-12T11:51:04.609Z,1024
2019-05-12T11:52:07.236Z,1024
2019-05-12T11:53:04.796Z,1024
2019-05-12T11:54:08.828Z,1024
2019-05-12T11:55:04.939Z,1024
2019-05-12T11:56:07.509Z,1024
2019-05-12T11:57:05.097Z,1024
2019-05-12T11:58:09.243Z,1024
2019-05-12T11:59:06.131Z,1024
2019-05-12T12:00:05.359Z,1024
2019-05-12T12:01:08.201Z,1024
2019-05-12T12:02:05.450Z,1024
2019-05-12T12:03:12.469Z,1024
2019-05-12T12:04:06.503Z,1024
2019-05-12T12:05:05.543Z,1024
2019-05-12T12:06:05.544Z,1024
2019-05-12T12:07:05.555Z,1024
2019-05-12T12:08:05.731Z,1024
2019-05-12T12:09:09.054Z,1024
2019-05-12T12:10:05.810Z,1024
2019-05-12T12:11:10.412Z,1024
2019-05-12T12:12:07.409Z,1024
2019-05-12T12:13:05.824Z,1024
2019-05-12T12:14:10.313Z,1024
2019-05-12T12:15:06.001Z,1024
2019-05-12T12:16:09.333Z,1024
2019-05-12T12:17:06.167Z,1024
2019-05-12T12:18:12.926Z,1024
2019-05-12T12:19:06.174Z,1024
2019-05-12T12:20:06.341Z,1024
2019-05-12T12:21:07.754Z,1024
2019-05-12T12:22:06.310Z,1024
2019-05-12T12:23:10.718Z,1024
2019-05-12T12:24:06.540Z,1024
2019-05-12T12:25:10.595Z,1024
2019-05-12T12:26:06.541Z,1024
2019-05-12T12:27:06.589Z,1024
2019-05-12T12:28:06.641Z,1024
2019-05-12T12:29:06.692Z,1024
2019-05-12T12:30:16.651Z,1024
2019-05-12T12:31:07.764Z,1024
2019-05-12T12:32:09.772Z,1024
2019-05-12T12:33:06.744Z,1024
2019-05-12T12:34:06.916Z,1024
2019-05-12T12:35:10.363Z,1024
2019-05-12T12:36:07.139Z,1024
2019-05-12T12:37:07.183Z,1024
2019-05-12T12:38:07.183Z,1024
2019-05-12T12:39:07.210Z,1024
2019-05-12T12:40:07.261Z,1024
2019-05-12T12:41:07.286Z,1024
2019-05-12T12:42:07.313Z,1024
2019-05-12T12:43:07.323Z,1024
2019-05-12T12:44:07.361Z,1024
2019-05-12T12:45:07.382Z,1024
2019-05-12T12:46:10.456Z,1024
2019-05-12T12:47:07.461Z,1024
2019-05-12T12:48:07.468Z,1024
2019-05-12T12:49:10.320Z,1024
2019-05-12T12:50:07.525Z,1024
2019-05-12T12:51:08.620Z,1024
2019-05-12T12:52:07.670Z,1024
2019-05-12T12:53:07.724Z,1024
2019-05-12T12:54:07.759Z,1024
2019-05-12T12:55:08.474Z,1024
2019-05-12T12:56:07.811Z,1024
2019-05-12T12:57:09.857Z,1024
2019-05-12T12:58:07.839Z,1024
2019-05-12T12:59:11.641Z,1024
2019-05-12T13:00:07.925Z,1024
2019-05-12T13:01:07.950Z,1024
2019-05-12T13:02:09.268Z,1024
2019-05-12T13:03:08.128Z,1024
2019-05-12T13:04:08.111Z,1024
2019-05-12T13:05:09.337Z,1024
2019-05-12T13:06:08.393Z,1024
2019-05-12T13:07:09.403Z,1024
2019-05-12T13:08:08.390Z,1024
2019-05-12T13:09:18.022Z,1024
2019-05-12T13:10:09.814Z,1024
2019-05-12T13:11:08.460Z,1024
2019-05-12T13:12:15.277Z,1024
2019-05-12T13:13:09.497Z,1024
2019-05-12T13:14:08.521Z,1024
2019-05-12T13:15:08.668Z,1024
2019-05-12T13:16:09.717Z,1024
2019-05-12T13:17:08.715Z,1024
2019-05-12T13:18:15.763Z,1024
2019-05-12T13:19:16.833Z,1024
2019-05-12T13:20:09.755Z,1024
2019-05-12T13:21:08.775Z,1024
2019-05-12T13:22:13.779Z,1024
2019-05-12T13:23:09.971Z,1024
2019-05-12T13:24:08.960Z,1024
2019-05-12T13:25:09.013Z,1024
2019-05-12T13:26:09.027Z,1024
2019-05-12T13:27:09.032Z,1024
2019-05-12T13:28:11.808Z,1024
2019-05-12T13:29:09.219Z,1024
2019-05-12T13:30:16.172Z,1024
2019-05-12T13:31:13.547Z,1024
2019-05-12T13:32:09.364Z,1024
2019-05-12T13:33:14.650Z,1024
2019-05-12T13:34:09.520Z,1024
2019-05-12T13:35:14.964Z,1025
2019-05-12T13:36:09.581Z,1024
2019-05-12T13:37:15.330Z,1024
2019-05-12T13:38:09.814Z,1024
2019-05-12T13:39:11.282Z,1024
2019-05-12T13:40:10.008Z,1024
2019-05-12T13:41:15.717Z,1024
2019-05-12T13:42:10.377Z,1025
2019-05-12T13:43:15.382Z,1024
2019-05-12T13:44:10.235Z,1025
2019-05-12T13:45:12.972Z,1025
2019-05-12T13:46:10.347Z,1024
2019-05-12T13:47:10.438Z,1024
2019-05-12T13:48:15.651Z,1024
2019-05-12T13:49:13.500Z,1025
2019-05-12T13:50:13.158Z,1025
2019-05-12T13:51:13.114Z,1025
2019-05-12T13:52:10.707Z,1024
2019-05-12T13:53:10.709Z,1024
2019-05-12T13:54:10.930Z,1025